Sandy Point, Texas
Current Conditions -  °F | °C
As of 6:35 PM on Monday 22 Dec 2014 (Local Time) from KAXH Reporting Station
Clear Clear  
Wind Chill: 55°   Ceiling: Unl
Heat Index: 55°   Visibility: 10mi
Dew Point: 53°   Wind: 9mph
Humidity: 94%   Direction: 210°SSW
Pressure: 29.65"   Gusts: NA
Location:  29.4042°N, 95.4477°W
Report Text: KAXH 230035Z AUTO 21008KT 10SM CLR 13/12 A2965 RMK AO2 T01250115
Loading
Personal Weather Stations






























Interactive Weather Map New forecast layout! Learn more

10-Day Weather Forecast

Advertisements
Track Severe Weather on mobile